Rechercher aéroport 
image banner adimage banner adimage banner ad
image banner ad

L88 - New Cuyama

Situé à New Cuyama, United States

ICAO - L88, IATA -

Données fournies par Airmate  

Information générale

Coordonnées: N34°56'24" W119°41'8"
Élévation : 2203 feet MSL.
Variation magnétique : 14° East
Voir autres Aéroports à California

Données opérationnelles

Special qualification required
Heure actuelle UTC:
Heure actuelle locale:
Météo à : KIZA - Santa Ynez ( 51 km )
METAR: KIZA 020615Z AUTO 22003KT 10SM CLR 14/11 A3009 RMK AO2
Voir NOTAMs / SUP AIP / TFR affectant cet aéroport [VIEW]
Fréquences de communication: [VIEW]

Pistes:

Identifiant RWYQFULongueur (ft)Largeur (ft)SurfaceLDA (ft)
10394060ASPH
28394060ASPH

Coordonnées de l'aéroport

Adresse: New Cuyama United States

Vue satellite de L88